createdAt,value
2022-09-01T00:00:51.755Z,19.78
2022-09-01T00:04:03.252Z,19.77
2022-09-01T00:07:09.135Z,19.70
2022-09-01T00:10:11.251Z,19.55
2022-09-01T00:13:13.570Z,19.59
2022-09-01T00:16:17.910Z,19.63
2022-09-01T00:19:20.524Z,19.80
2022-09-01T00:22:22.269Z,19.71
2022-09-01T00:25:24.881Z,19.66
2022-09-01T00:28:28.751Z,19.85
2022-09-01T00:31:32.427Z,19.60
2022-09-01T00:34:34.390Z,19.62
2022-09-01T00:37:36.299Z,19.52
2022-09-01T00:40:38.529Z,19.63
2022-09-01T00:44:05.492Z,19.56
2022-09-01T00:47:07.546Z,19.60
2022-09-01T00:50:12.840Z,19.78
2022-09-01T00:53:14.646Z,19.53
2022-09-01T00:56:17.123Z,19.39
2022-09-01T00:59:22.380Z,19.31
2022-09-01T01:02:25.963Z,19.12
2022-09-01T01:05:36.706Z,19.07
2022-09-01T01:08:42.062Z,19.02
2022-09-01T01:11:47.634Z,19.18
2022-09-01T01:14:50.881Z,19.00
2022-09-01T01:17:53.123Z,19.04
2022-09-01T01:21:22.691Z,18.84
2022-09-01T01:24:33.554Z,18.80
2022-09-01T01:27:42.521Z,18.76
2022-09-01T01:30:52.592Z,18.62
2022-09-01T01:33:56.889Z,18.45
2022-09-01T01:36:59.959Z,18.26
2022-09-01T01:40:02.877Z,18.09
2022-09-01T01:43:05.842Z,18.02
2022-09-01T01:46:10.938Z,17.92
2022-09-01T01:49:18.989Z,17.74
2022-09-01T01:52:21.262Z,17.46
2022-09-01T01:55:29.156Z,17.42
2022-09-01T01:58:31.462Z,17.32
2022-09-01T02:01:33.519Z,17.18
2022-09-01T02:04:36.105Z,17.11
2022-09-01T02:07:42.495Z,16.98
2022-09-01T02:10:47.080Z,16.89
2022-09-01T02:13:49.470Z,16.54
2022-09-01T02:16:52.100Z,16.52
2022-09-01T02:19:58.049Z,16.17
2022-09-01T02:23:09.419Z,16.22
2022-09-01T02:26:16.965Z,15.76
2022-09-01T02:29:22.595Z,16.13
2022-09-01T02:32:24.779Z,16.51
2022-09-01T02:35:34.330Z,16.05
2022-09-01T02:38:36.339Z,15.55
2022-09-01T02:41:41.392Z,15.37
2022-09-01T02:44:43.784Z,15.23
2022-09-01T02:47:47.650Z,14.98
2022-09-01T02:50:49.492Z,15.01
2022-09-01T02:53:53.191Z,14.98
2022-09-01T02:56:55.232Z,14.83
2022-09-01T02:59:58.938Z,14.72
2022-09-01T03:03:02.268Z,14.81
2022-09-01T03:06:05.196Z,14.75
2022-09-01T03:09:11.291Z,14.81
2022-09-01T03:12:13.185Z,14.84
2022-09-01T03:15:14.993Z,14.90
2022-09-01T03:18:19.138Z,15.46
2022-09-01T03:21:21.164Z,15.58
2022-09-01T03:24:23.194Z,15.55
2022-09-01T03:27:25.020Z,15.87
2022-09-01T03:30:27.003Z,15.78
2022-09-01T03:33:28.798Z,15.97
2022-09-01T03:36:33.541Z,15.94
2022-09-01T03:39:35.977Z,15.90
2022-09-01T03:42:37.988Z,15.82
2022-09-01T03:45:41.345Z,16.00
2022-09-01T03:48:43.388Z,15.66
2022-09-01T03:51:45.623Z,15.79
2022-09-01T03:54:51.295Z,15.76
2022-09-01T03:57:54.768Z,15.71
2022-09-01T04:01:00.793Z,15.61
2022-09-01T04:04:03.259Z,15.46
2022-09-01T04:07:05.344Z,15.87
2022-09-01T04:10:11.595Z,15.84
2022-09-01T04:13:14.347Z,15.92
2022-09-01T04:16:47.691Z,15.68
2022-09-01T04:19:49.603Z,15.94
2022-09-01T04:22:52.747Z,15.95
2022-09-01T04:25:57.883Z,15.83
2022-09-01T04:29:01.093Z,15.95
2022-09-01T04:32:06.844Z,16.07
2022-09-01T04:35:11.616Z,16.20
2022-09-01T04:38:16.410Z,16.06
2022-09-01T04:41:18.770Z,16.01
2022-09-01T04:44:20.567Z,16.12
2022-09-01T04:47:35.162Z,15.70
2022-09-01T04:50:41.321Z,15.51
2022-09-01T04:53:49.028Z,15.40
2022-09-01T04:56:53.075Z,15.34
2022-09-01T04:59:57.102Z,15.37
2022-09-01T05:03:05.045Z,15.11
2022-09-01T05:06:13.443Z,15.31
2022-09-01T05:09:18.074Z,15.34
2022-09-01T05:12:23.295Z,15.17
2022-09-01T05:15:24.940Z,15.07
2022-09-01T05:18:28.484Z,15.08
2022-09-01T05:21:30.715Z,15.29
2022-09-01T05:24:39.826Z,15.37
2022-09-01T05:27:49.843Z,15.47
2022-09-01T05:30:54.336Z,15.47
2022-09-01T05:33:58.276Z,15.60
2022-09-01T05:37:00.150Z,15.72
2022-09-01T05:40:02.754Z,15.64
2022-09-01T05:43:04.664Z,15.65
2022-09-01T05:46:09.143Z,15.73
2022-09-01T05:49:13.991Z,15.86
2022-09-01T05:52:15.852Z,15.81
2022-09-01T05:55:17.743Z,15.94
2022-09-01T05:58:20.366Z,15.74
2022-09-01T06:01:31.144Z,15.86
2022-09-01T06:04:32.952Z,15.62
2022-09-01T06:07:38.129Z,15.59
2022-09-01T06:10:41.973Z,15.70
2022-09-01T06:13:47.792Z,15.67
2022-09-01T06:16:49.589Z,15.78
2022-09-01T06:19:52.766Z,15.97
2022-09-01T06:22:54.557Z,16.26
2022-09-01T06:25:56.334Z,16.40
2022-09-01T06:29:01.385Z,16.19
2022-09-01T06:32:03.618Z,16.26
2022-09-01T06:35:07.391Z,16.32
2022-09-01T06:38:11.941Z,16.48
2022-09-01T06:41:13.851Z,16.47
2022-09-01T06:44:16.117Z,16.87
2022-09-01T06:47:17.934Z,16.93
2022-09-01T06:53:45.587Z,16.64
2022-09-01T06:56:51.840Z,16.69
2022-09-01T06:59:54.589Z,16.86
2022-09-01T07:02:58.345Z,17.05
2022-09-01T07:06:02.635Z,16.95
2022-09-01T07:09:21.550Z,16.92
2022-09-01T07:12:26.732Z,16.98
2022-09-01T07:18:59.084Z,17.06
2022-09-01T07:22:08.239Z,16.94
2022-09-01T07:25:12.871Z,17.30
2022-09-01T07:28:37.949Z,17.11
2022-09-01T07:31:50.135Z,17.12
2022-09-01T07:34:52.430Z,17.08
2022-09-01T07:42:31.770Z,17.12
2022-09-01T07:44:40.354Z,17.09
2022-09-01T07:47:57.970Z,17.48
2022-09-01T07:51:35.683Z,17.30
2022-09-01T07:54:24.816Z,17.06
2022-09-01T07:57:29.757Z,17.73
2022-09-01T08:00:32.029Z,17.64
2022-09-01T08:03:33.941Z,17.57
2022-09-01T08:06:39.361Z,17.59
2022-09-01T08:09:44.269Z,17.50
2022-09-01T08:12:46.337Z,17.63
2022-09-01T08:19:16.546Z,17.52
2022-09-01T08:22:21.933Z,17.68
2022-09-01T08:25:25.024Z,17.79
2022-09-01T08:28:27.355Z,17.88
2022-09-01T08:31:30.967Z,17.79
2022-09-01T08:34:34.215Z,18.05
2022-09-01T08:37:36.519Z,18.04
2022-09-01T08:40:38.839Z,18.41
2022-09-01T08:44:03.926Z,18.68
2022-09-01T08:47:13.736Z,18.60
2022-09-01T08:50:20.826Z,18.56
2022-09-01T08:53:27.218Z,18.60
2022-09-01T08:56:29.277Z,19.08
2022-09-01T08:59:31.084Z,19.63
2022-09-01T09:02:51.032Z,19.77
2022-09-01T09:06:00.021Z,19.98
2022-09-01T09:09:06.424Z,20.01
2022-09-01T09:12:29.111Z,20.03
2022-09-01T09:15:45.001Z,19.93
2022-09-01T09:18:58.057Z,19.90
2022-09-01T09:22:02.575Z,20.24
2022-09-01T09:25:11.679Z,20.71
2022-09-01T09:28:13.684Z,20.69
2022-09-01T09:31:45.844Z,20.50
2022-09-01T09:34:48.815Z,21.15
2022-09-01T09:37:50.801Z,20.96
2022-09-01T09:41:18.781Z,20.89
2022-09-01T09:44:31.379Z,20.65
2022-09-01T09:47:46.551Z,20.49
2022-09-01T09:50:48.448Z,20.80
2022-09-01T09:53:52.574Z,19.89
2022-09-01T09:57:12.694Z,19.99
2022-09-01T10:00:24.509Z,20.27
2022-09-01T10:03:50.444Z,20.62
2022-09-01T10:06:54.352Z,21.14
2022-09-01T10:09:58.797Z,21.27
2022-09-01T10:13:02.245Z,21.57
2022-09-01T10:16:16.283Z,21.62
2022-09-01T10:19:25.304Z,20.79
2022-09-01T10:22:27.150Z,20.86
2022-09-01T10:25:33.482Z,21.42
2022-09-01T10:28:50.725Z,21.83
2022-09-01T10:32:14.792Z,22.16
2022-09-01T10:35:23.797Z,22.02
2022-09-01T10:38:30.540Z,22.38
2022-09-01T10:41:42.465Z,22.79
2022-09-01T10:45:02.079Z,22.76
2022-09-01T10:48:32.009Z,23.09
2022-09-01T10:51:38.900Z,22.98
2022-09-01T10:54:51.030Z,22.65
2022-09-01T11:01:49.617Z,22.65
2022-09-01T11:04:51.766Z,22.39
2022-09-01T11:08:01.796Z,21.91
2022-09-01T11:11:15.175Z,22.59
2022-09-01T11:14:23.079Z,22.07
2022-09-01T11:17:25.351Z,22.21
2022-09-01T11:20:34.472Z,22.55
2022-09-01T11:23:36.639Z,22.02
2022-09-01T11:26:48.005Z,22.36
2022-09-01T11:30:01.217Z,22.20
2022-09-01T11:33:28.152Z,22.21
2022-09-01T11:36:29.769Z,21.92
2022-09-01T11:39:46.585Z,22.25
2022-09-01T11:42:51.204Z,21.93
2022-09-01T11:46:17.640Z,21.97
2022-09-01T11:49:37.668Z,22.19
2022-09-01T11:52:41.684Z,22.25
2022-09-01T11:55:46.737Z,22.14
2022-09-01T11:58:48.580Z,22.27
2022-09-01T12:01:58.151Z,22.40
2022-09-01T12:05:01.988Z,22.53
2022-09-01T12:08:14.125Z,22.64
2022-09-01T12:11:22.319Z,22.60
2022-09-01T12:14:24.347Z,22.26
2022-09-01T12:17:26.199Z,22.22
2022-09-01T12:20:31.111Z,21.81
2022-09-01T12:23:40.368Z,21.32
2022-09-01T12:26:43.050Z,21.30
2022-09-01T12:29:46.159Z,21.38
2022-09-01T12:32:48.582Z,21.34
2022-09-01T12:35:50.704Z,21.30
2022-09-01T12:38:56.629Z,21.45
2022-09-01T12:42:24.415Z,21.34
2022-09-01T12:45:45.695Z,21.39
2022-09-01T12:48:49.590Z,21.11
2022-09-01T12:52:20.308Z,21.52
2022-09-01T12:58:54.608Z,21.66
2022-09-01T13:01:56.570Z,21.83
2022-09-01T13:05:36.099Z,22.08
2022-09-01T13:08:41.459Z,21.93
2022-09-01T13:15:05.802Z,21.75
2022-09-01T13:18:07.626Z,21.93
2022-09-01T13:21:10.185Z,21.90
2022-09-01T13:24:11.997Z,22.00
2022-09-01T13:27:21.995Z,21.95
2022-09-01T13:30:28.472Z,22.11
2022-09-01T13:34:08.749Z,21.45
2022-09-01T13:36:53.020Z,21.66
2022-09-01T13:39:54.645Z,21.60
2022-09-01T13:42:56.265Z,21.61
2022-09-01T13:45:59.054Z,21.83
2022-09-01T13:49:04.327Z,21.81
2022-09-01T13:52:06.977Z,21.75
2022-09-01T13:55:12.892Z,21.95
2022-09-01T13:58:15.176Z,21.87
2022-09-01T14:01:16.953Z,21.76
2022-09-01T14:04:20.050Z,21.70
2022-09-01T14:07:22.057Z,21.74
2022-09-01T14:10:25.633Z,21.81
2022-09-01T14:13:27.890Z,21.88
2022-09-01T14:16:30.120Z,21.97
2022-09-01T14:19:32.092Z,22.13
2022-09-01T14:22:38.333Z,22.49
2022-09-01T14:25:46.073Z,22.35
2022-09-01T14:28:48.671Z,22.48
2022-09-01T14:31:50.438Z,22.35
2022-09-01T14:34:53.209Z,22.45
2022-09-01T14:37:56.360Z,22.23
2022-09-01T14:40:58.387Z,22.11
2022-09-01T14:44:03.215Z,22.25
2022-09-01T14:47:05.992Z,22.62
2022-09-01T14:53:15.187Z,22.55
2022-09-01T14:56:19.249Z,22.50
2022-09-01T14:59:20.877Z,22.66
2022-09-01T15:02:25.465Z,22.67
2022-09-01T15:05:27.344Z,22.67
2022-09-01T15:08:29.082Z,22.80
2022-09-01T15:11:30.781Z,22.73
2022-09-01T15:14:33.538Z,22.33
2022-09-01T15:17:35.658Z,22.73
2022-09-01T15:20:45.365Z,22.45
2022-09-01T15:23:48.764Z,22.26
2022-09-01T15:26:50.572Z,22.39
2022-09-01T15:29:52.352Z,22.28
2022-09-01T15:32:55.386Z,22.44
2022-09-01T15:35:57.078Z,22.36
2022-09-01T15:38:59.111Z,21.93
2022-09-01T15:42:03.165Z,21.89
2022-09-01T15:45:09.993Z,22.06
2022-09-01T15:48:11.614Z,22.22
2022-09-01T15:51:22.325Z,22.23
2022-09-01T15:54:30.200Z,21.92
2022-09-01T15:57:32.248Z,21.87
2022-09-01T16:00:34.899Z,22.01
2022-09-01T16:03:36.864Z,21.90
2022-09-01T16:06:39.253Z,22.02
2022-09-01T16:09:40.911Z,22.01
2022-09-01T16:12:44.926Z,22.21
2022-09-01T16:16:14.572Z,22.07
2022-09-01T16:19:22.702Z,21.77
2022-09-01T16:22:31.689Z,21.94
2022-09-01T16:25:34.782Z,21.79
2022-09-01T16:28:37.987Z,21.69
2022-09-01T16:31:42.863Z,21.68
2022-09-01T16:34:47.162Z,21.46
2022-09-01T16:37:52.115Z,21.34
2022-09-01T16:41:04.921Z,21.44
2022-09-01T16:44:44.371Z,21.61
2022-09-01T16:47:52.823Z,21.29
2022-09-01T16:51:12.782Z,21.35
2022-09-01T16:54:30.063Z,21.33
2022-09-01T16:57:46.299Z,21.12
2022-09-01T17:01:00.582Z,21.12
2022-09-01T17:04:30.500Z,20.82
2022-09-01T17:07:50.409Z,20.69
2022-09-01T17:10:54.196Z,20.74
2022-09-01T17:13:56.613Z,20.71
2022-09-01T17:17:08.458Z,20.66
2022-09-01T17:20:13.088Z,20.60
2022-09-01T17:23:28.651Z,20.65
2022-09-01T17:26:31.794Z,20.44
2022-09-01T17:29:41.117Z,20.44
2022-09-01T17:32:55.123Z,20.25
2022-09-01T17:36:20.291Z,20.19
2022-09-01T17:39:37.363Z,19.92
2022-09-01T17:43:05.019Z,19.77
2022-09-01T17:46:31.287Z,19.75
2022-09-01T17:49:33.203Z,19.56
2022-09-01T17:52:52.919Z,19.37
2022-09-01T17:55:57.779Z,19.33
2022-09-01T17:59:23.951Z,19.18
2022-09-01T18:03:00.904Z,19.02
2022-09-01T18:06:07.239Z,18.91
2022-09-01T18:09:10.122Z,18.86
2022-09-01T18:12:17.349Z,18.96
2022-09-01T18:15:22.712Z,18.87
2022-09-01T18:18:35.476Z,18.75
2022-09-01T18:21:46.308Z,18.44
2022-09-01T18:25:06.531Z,18.40
2022-09-01T18:28:09.852Z,18.42
2022-09-01T18:31:23.832Z,18.59
2022-09-01T18:35:22.440Z,19.04
2022-09-01T18:38:51.580Z,19.24
2022-09-01T18:41:55.751Z,19.09
2022-09-01T18:45:21.987Z,19.08
2022-09-01T18:48:38.411Z,18.90
2022-09-01T18:51:47.592Z,18.85
2022-09-01T18:55:43.245Z,18.61
2022-09-01T18:58:53.359Z,18.78
2022-09-01T19:02:34.125Z,18.58
2022-09-01T19:05:46.376Z,18.61
2022-09-01T19:09:08.378Z,18.48
2022-09-01T19:12:15.475Z,18.68
2022-09-01T19:15:26.692Z,18.43
2022-09-01T19:18:40.378Z,18.57
2022-09-01T19:21:44.834Z,18.52
2022-09-01T19:25:28.437Z,18.32
2022-09-01T19:28:33.161Z,18.12
2022-09-01T19:31:40.404Z,17.92
2022-09-01T19:35:05.576Z,17.84
2022-09-01T19:38:09.417Z,17.76
2022-09-01T19:41:46.858Z,17.52
2022-09-01T19:44:53.683Z,17.37
2022-09-01T19:48:15.192Z,17.18
2022-09-01T19:51:28.070Z,17.16
2022-09-01T19:54:49.298Z,16.96
2022-09-01T19:58:07.437Z,16.74
2022-09-01T20:01:14.491Z,16.81
2022-09-01T20:04:32.124Z,16.69
2022-09-01T20:07:44.627Z,16.83
2022-09-01T20:11:05.431Z,16.93
2022-09-01T20:14:25.908Z,17.06
2022-09-01T20:17:37.110Z,17.16
2022-09-01T20:20:45.173Z,17.36
2022-09-01T20:23:46.919Z,17.41
2022-09-01T20:27:01.031Z,17.41
2022-09-01T20:30:09.316Z,17.40
2022-09-01T20:33:19.344Z,17.38
2022-09-01T20:36:29.374Z,17.44
2022-09-01T20:39:59.831Z,17.53
2022-09-01T20:43:25.275Z,17.61
2022-09-01T20:46:27.180Z,17.30
2022-09-01T20:49:29.209Z,17.23
2022-09-01T20:52:47.698Z,17.28
2022-09-01T20:55:58.234Z,17.37
2022-09-01T20:59:11.532Z,17.28
2022-09-01T21:02:38.743Z,17.21
2022-09-01T21:06:04.334Z,17.12
2022-09-01T21:09:15.369Z,17.10
2022-09-01T21:12:30.767Z,16.95
2022-09-01T21:15:47.683Z,16.99
2022-09-01T21:19:18.730Z,16.85
2022-09-01T21:22:22.367Z,16.86
2022-09-01T21:25:24.804Z,16.90
2022-09-01T21:28:27.977Z,16.75
2022-09-01T21:31:31.089Z,16.71
2022-09-01T21:34:33.031Z,16.90
2022-09-01T21:37:35.172Z,16.76
2022-09-01T21:40:37.048Z,16.63
2022-09-01T21:43:43.930Z,16.59
2022-09-01T21:46:45.810Z,16.67
2022-09-01T21:49:47.681Z,16.68
2022-09-01T21:52:49.760Z,16.63
2022-09-01T21:55:51.666Z,16.54
2022-09-01T21:58:55.407Z,16.47
2022-09-01T22:01:57.344Z,16.54
2022-09-01T22:04:59.446Z,16.65
2022-09-01T22:08:01.606Z,16.59
2022-09-01T22:11:09.783Z,16.62
2022-09-01T22:14:11.804Z,16.55
2022-09-01T22:17:13.626Z,16.64
2022-09-01T22:20:18.574Z,16.75
2022-09-01T22:23:20.615Z,16.80
2022-09-01T22:26:28.779Z,16.58
2022-09-01T22:29:30.399Z,16.46
2022-09-01T22:32:36.199Z,16.42
2022-09-01T22:35:47.621Z,16.51
2022-09-01T22:38:50.299Z,16.66
2022-09-01T22:41:52.078Z,16.74
2022-09-01T22:44:54.076Z,16.54
2022-09-01T22:47:55.980Z,16.57
2022-09-01T22:50:57.802Z,16.61
2022-09-01T22:53:59.835Z,16.67
2022-09-01T22:57:02.667Z,16.62
2022-09-01T23:00:08.737Z,16.72
2022-09-01T23:03:10.911Z,16.79
2022-09-01T23:06:21.827Z,16.65
2022-09-01T23:09:29.761Z,16.51
2022-09-01T23:12:31.357Z,16.51
2022-09-01T23:15:34.012Z,16.45
2022-09-01T23:18:38.082Z,16.58
2022-09-01T23:21:39.909Z,16.54
2022-09-01T23:24:41.765Z,16.55
2022-09-01T23:27:43.769Z,16.47
2022-09-01T23:30:49.847Z,16.66
2022-09-01T23:33:51.997Z,16.65
2022-09-01T23:36:53.857Z,16.59
2022-09-01T23:39:55.913Z,16.63
2022-09-01T23:42:57.785Z,16.43
2022-09-01T23:45:59.803Z,16.66
2022-09-01T23:49:02.527Z,16.63
2022-09-01T23:52:04.505Z,16.62
2022-09-01T23:55:07.927Z,16.70
2022-09-01T23:58:10.261Z,16.82
